sensor_id;sensor_type;location;lat;lon;timestamp;P1;durP1;ratioP1;P2;durP2;ratioP2
72379;SDS011;60354;47.798;12.472;2022-12-18T00:01:46;33.28;;;12.00;;
72379;SDS011;60354;47.798;12.472;2022-12-18T00:04:15;30.73;;;11.43;;
72379;SDS011;60354;47.798;12.472;2022-12-18T00:06:45;30.58;;;11.88;;
72379;SDS011;60354;47.798;12.472;2022-12-18T00:09:11;28.73;;;11.18;;
72379;SDS011;60354;47.798;12.472;2022-12-18T00:11:36;28.75;;;10.82;;
72379;SDS011;60354;47.798;12.472;2022-12-18T00:14:02;25.25;;;10.48;;
72379;SDS011;60354;47.798;12.472;2022-12-18T00:16:28;26.30;;;11.52;;
72379;SDS011;60354;47.798;12.472;2022-12-18T00:18:56;25.42;;;10.27;;
72379;SDS011;60354;47.798;12.472;2022-12-18T00:21:25;26.17;;;9.90;;
72379;SDS011;60354;47.798;12.472;2022-12-18T00:23:53;24.83;;;10.07;;
72379;SDS011;60354;47.798;12.472;2022-12-18T00:26:20;24.83;;;10.13;;
72379;SDS011;60354;47.798;12.472;2022-12-18T00:28:50;25.30;;;10.23;;
72379;SDS011;60354;47.798;12.472;2022-12-18T00:31:18;28.13;;;10.35;;
72379;SDS011;60354;47.798;12.472;2022-12-18T00:33:45;24.92;;;10.63;;
72379;SDS011;60354;47.798;12.472;2022-12-18T00:36:12;22.85;;;10.05;;
72379;SDS011;60354;47.798;12.472;2022-12-18T00:38:38;24.33;;;10.13;;
72379;SDS011;60354;47.798;12.472;2022-12-18T00:41:04;22.30;;;9.40;;
72379;SDS011;60354;47.798;12.472;2022-12-18T00:43:30;27.38;;;10.98;;
72379;SDS011;60354;47.798;12.472;2022-12-18T00:45:55;31.90;;;12.43;;
72379;SDS011;60354;47.798;12.472;2022-12-18T00:48:21;40.75;;;14.80;;
72379;SDS011;60354;47.798;12.472;2022-12-18T00:50:48;36.13;;;12.55;;
72379;SDS011;60354;47.798;12.472;2022-12-18T00:53:14;29.52;;;11.68;;
72379;SDS011;60354;47.798;12.472;2022-12-18T00:55:40;31.25;;;12.60;;
72379;SDS011;60354;47.798;12.472;2022-12-18T00:58:06;29.05;;;11.20;;
72379;SDS011;60354;47.798;12.472;2022-12-18T01:00:34;31.95;;;12.68;;
72379;SDS011;60354;47.798;12.472;2022-12-18T01:02:59;28.08;;;11.27;;
72379;SDS011;60354;47.798;12.472;2022-12-18T01:05:25;29.38;;;11.25;;
72379;SDS011;60354;47.798;12.472;2022-12-18T01:07:51;31.08;;;12.05;;
72379;SDS011;60354;47.798;12.472;2022-12-18T01:10:18;28.50;;;11.45;;
72379;SDS011;60354;47.798;12.472;2022-12-18T01:12:44;30.15;;;11.25;;
72379;SDS011;60354;47.798;12.472;2022-12-18T01:15:10;30.70;;;12.13;;
72379;SDS011;60354;47.798;12.472;2022-12-18T01:17:37;31.13;;;11.82;;
72379;SDS011;60354;47.798;12.472;2022-12-18T01:20:03;29.00;;;11.40;;
72379;SDS011;60354;47.798;12.472;2022-12-18T01:22:29;33.70;;;11.52;;
72379;SDS011;60354;47.798;12.472;2022-12-18T01:24:54;24.50;;;10.15;;
72379;SDS011;60354;47.798;12.472;2022-12-18T01:27:21;21.95;;;9.30;;
72379;SDS011;60354;47.798;12.472;2022-12-18T01:29:47;29.20;;;10.77;;
72379;SDS011;60354;47.798;12.472;2022-12-18T01:32:13;28.25;;;10.40;;
72379;SDS011;60354;47.798;12.472;2022-12-18T01:34:40;25.98;;;9.88;;
72379;SDS011;60354;47.798;12.472;2022-12-18T01:37:05;23.08;;;10.13;;
72379;SDS011;60354;47.798;12.472;2022-12-18T01:39:31;26.42;;;10.02;;
72379;SDS011;60354;47.798;12.472;2022-12-18T01:41:58;26.08;;;9.95;;
72379;SDS011;60354;47.798;12.472;2022-12-18T01:50:00;24.42;;;10.23;;
72379;SDS011;60354;47.798;12.472;2022-12-18T01:52:37;21.77;;;9.73;;
72379;SDS011;60354;47.798;12.472;2022-12-18T01:55:07;21.52;;;9.52;;
72379;SDS011;60354;47.798;12.472;2022-12-18T01:57:34;27.20;;;11.13;;
72379;SDS011;60354;47.798;12.472;2022-12-18T02:00:04;25.00;;;9.80;;
72379;SDS011;60354;47.798;12.472;2022-12-18T02:02:40;19.52;;;8.63;;
72379;SDS011;60354;47.798;12.472;2022-12-18T02:05:07;21.65;;;8.15;;
72379;SDS011;60354;47.798;12.472;2022-12-18T02:07:51;20.92;;;9.15;;
72379;SDS011;60354;47.798;12.472;2022-12-18T02:10:30;18.65;;;8.45;;
72379;SDS011;60354;47.798;12.472;2022-12-18T02:13:12;23.90;;;10.27;;
72379;SDS011;60354;47.798;12.472;2022-12-18T02:18:21;20.95;;;9.10;;
72379;SDS011;60354;47.798;12.472;2022-12-18T02:24:37;21.85;;;8.23;;
72379;SDS011;60354;47.798;12.472;2022-12-18T02:26:53;20.10;;;8.18;;
72379;SDS011;60354;47.798;12.472;2022-12-18T02:29:35;22.55;;;8.32;;
72379;SDS011;60354;47.798;12.472;2022-12-18T02:32:09;22.30;;;8.90;;
72379;SDS011;60354;47.798;12.472;2022-12-18T02:34:42;26.45;;;9.73;;
72379;SDS011;60354;47.798;12.472;2022-12-18T02:37:14;42.05;;;15.60;;
72379;SDS011;60354;47.798;12.472;2022-12-18T02:39:43;27.58;;;11.48;;
72379;SDS011;60354;47.798;12.472;2022-12-18T02:42:12;23.58;;;9.95;;
72379;SDS011;60354;47.798;12.472;2022-12-18T02:44:43;24.23;;;10.43;;
72379;SDS011;60354;47.798;12.472;2022-12-18T02:52:31;21.25;;;9.75;;
72379;SDS011;60354;47.798;12.472;2022-12-18T03:00:28;21.80;;;9.43;;
72379;SDS011;60354;47.798;12.472;2022-12-18T03:05:44;19.55;;;9.60;;
72379;SDS011;60354;47.798;12.472;2022-12-18T03:08:17;19.05;;;8.57;;
72379;SDS011;60354;47.798;12.472;2022-12-18T03:10:45;19.73;;;7.70;;
72379;SDS011;60354;47.798;12.472;2022-12-18T03:13:19;20.17;;;9.30;;
72379;SDS011;60354;47.798;12.472;2022-12-18T03:15:50;18.98;;;8.50;;
72379;SDS011;60354;47.798;12.472;2022-12-18T03:18:21;21.35;;;9.23;;
72379;SDS011;60354;47.798;12.472;2022-12-18T03:20:51;21.15;;;8.60;;
72379;SDS011;60354;47.798;12.472;2022-12-18T03:23:21;22.35;;;10.80;;
72379;SDS011;60354;47.798;12.472;2022-12-18T03:25:50;25.50;;;10.45;;
72379;SDS011;60354;47.798;12.472;2022-12-18T03:28:21;25.05;;;10.45;;
72379;SDS011;60354;47.798;12.472;2022-12-18T03:30:53;22.48;;;9.70;;
72379;SDS011;60354;47.798;12.472;2022-12-18T03:33:29;20.63;;;9.07;;
72379;SDS011;60354;47.798;12.472;2022-12-18T03:36:02;20.20;;;8.90;;
72379;SDS011;60354;47.798;12.472;2022-12-18T03:38:28;26.35;;;10.18;;
72379;SDS011;60354;47.798;12.472;2022-12-18T03:41:03;23.65;;;10.43;;
72379;SDS011;60354;47.798;12.472;2022-12-18T03:43:46;22.55;;;8.65;;
72379;SDS011;60354;47.798;12.472;2022-12-18T03:46:33;24.38;;;9.20;;
72379;SDS011;60354;47.798;12.472;2022-12-18T03:49:20;19.80;;;8.98;;
72379;SDS011;60354;47.798;12.472;2022-12-18T03:51:53;18.45;;;7.82;;
72379;SDS011;60354;47.798;12.472;2022-12-18T03:54:22;15.32;;;7.18;;
72379;SDS011;60354;47.798;12.472;2022-12-18T03:56:58;21.77;;;9.13;;
72379;SDS011;60354;47.798;12.472;2022-12-18T03:59:28;20.63;;;8.65;;
72379;SDS011;60354;47.798;12.472;2022-12-18T04:01:56;21.80;;;8.55;;
72379;SDS011;60354;47.798;12.472;2022-12-18T04:04:24;19.50;;;7.80;;
72379;SDS011;60354;47.798;12.472;2022-12-18T04:06:52;15.98;;;7.35;;
72379;SDS011;60354;47.798;12.472;2022-12-18T04:09:19;17.85;;;7.57;;
72379;SDS011;60354;47.798;12.472;2022-12-18T04:11:46;17.17;;;7.03;;
72379;SDS011;60354;47.798;12.472;2022-12-18T04:14:14;15.10;;;6.38;;
72379;SDS011;60354;47.798;12.472;2022-12-18T04:16:40;16.40;;;7.88;;
72379;SDS011;60354;47.798;12.472;2022-12-18T04:19:09;20.58;;;7.80;;
72379;SDS011;60354;47.798;12.472;2022-12-18T04:21:38;15.25;;;6.32;;
72379;SDS011;60354;47.798;12.472;2022-12-18T04:24:04;20.13;;;7.30;;
72379;SDS011;60354;47.798;12.472;2022-12-18T04:26:32;16.23;;;7.20;;
72379;SDS011;60354;47.798;12.472;2022-12-18T04:29:08;13.30;;;6.43;;
72379;SDS011;60354;47.798;12.472;2022-12-18T04:31:34;15.07;;;6.65;;
72379;SDS011;60354;47.798;12.472;2022-12-18T04:34:01;19.83;;;7.65;;
72379;SDS011;60354;47.798;12.472;2022-12-18T04:36:27;18.75;;;7.10;;
72379;SDS011;60354;47.798;12.472;2022-12-18T04:38:53;17.25;;;7.40;;
72379;SDS011;60354;47.798;12.472;2022-12-18T04:41:20;17.45;;;7.15;;
72379;SDS011;60354;47.798;12.472;2022-12-18T04:43:47;16.25;;;6.88;;
72379;SDS011;60354;47.798;12.472;2022-12-18T04:46:13;15.90;;;6.88;;
72379;SDS011;60354;47.798;12.472;2022-12-18T04:48:39;17.52;;;8.05;;
72379;SDS011;60354;47.798;12.472;2022-12-18T04:51:05;13.70;;;6.40;;
72379;SDS011;60354;47.798;12.472;2022-12-18T04:53:31;19.35;;;8.57;;
72379;SDS011;60354;47.798;12.472;2022-12-18T04:56:07;20.50;;;8.00;;
72379;SDS011;60354;47.798;12.472;2022-12-18T04:58:35;17.63;;;6.88;;
72379;SDS011;60354;47.798;12.472;2022-12-18T05:01:01;16.20;;;7.20;;
72379;SDS011;60354;47.798;12.472;2022-12-18T05:03:28;25.92;;;8.38;;
72379;SDS011;60354;47.798;12.472;2022-12-18T05:05:54;17.90;;;7.35;;
72379;SDS011;60354;47.798;12.472;2022-12-18T05:08:20;27.88;;;9.75;;
72379;SDS011;60354;47.798;12.472;2022-12-18T05:10:45;20.55;;;8.48;;
72379;SDS011;60354;47.798;12.472;2022-12-18T05:13:11;28.02;;;10.77;;
72379;SDS011;60354;47.798;12.472;2022-12-18T05:15:36;24.27;;;9.45;;
72379;SDS011;60354;47.798;12.472;2022-12-18T05:18:02;19.85;;;8.77;;
72379;SDS011;60354;47.798;12.472;2022-12-18T05:20:28;21.25;;;8.43;;
72379;SDS011;60354;47.798;12.472;2022-12-18T05:22:54;22.88;;;8.90;;
72379;SDS011;60354;47.798;12.472;2022-12-18T05:25:20;17.92;;;6.75;;
72379;SDS011;60354;47.798;12.472;2022-12-18T05:27:46;18.52;;;7.55;;
72379;SDS011;60354;47.798;12.472;2022-12-18T05:30:12;30.48;;;12.60;;
72379;SDS011;60354;47.798;12.472;2022-12-18T05:32:39;61.78;;;21.95;;
72379;SDS011;60354;47.798;12.472;2022-12-18T05:35:05;98.22;;;36.50;;
72379;SDS011;60354;47.798;12.472;2022-12-18T05:37:32;34.63;;;14.13;;
72379;SDS011;60354;47.798;12.472;2022-12-18T05:39:58;34.38;;;14.82;;
72379;SDS011;60354;47.798;12.472;2022-12-18T05:42:24;23.17;;;9.80;;
72379;SDS011;60354;47.798;12.472;2022-12-18T05:44:49;21.52;;;8.55;;
72379;SDS011;60354;47.798;12.472;2022-12-18T05:47:15;32.28;;;11.63;;
72379;SDS011;60354;47.798;12.472;2022-12-18T05:49:40;32.60;;;12.38;;
72379;SDS011;60354;47.798;12.472;2022-12-18T05:52:06;21.27;;;8.80;;
72379;SDS011;60354;47.798;12.472;2022-12-18T05:54:31;20.13;;;7.72;;
72379;SDS011;60354;47.798;12.472;2022-12-18T05:56:57;19.27;;;8.10;;
72379;SDS011;60354;47.798;12.472;2022-12-18T05:59:23;17.52;;;7.35;;
72379;SDS011;60354;47.798;12.472;2022-12-18T06:01:49;17.13;;;8.07;;
72379;SDS011;60354;47.798;12.472;2022-12-18T06:04:14;18.38;;;8.05;;
72379;SDS011;60354;47.798;12.472;2022-12-18T06:06:40;20.05;;;7.97;;
72379;SDS011;60354;47.798;12.472;2022-12-18T06:09:05;18.90;;;7.75;;
72379;SDS011;60354;47.798;12.472;2022-12-18T06:11:34;21.85;;;8.63;;
72379;SDS011;60354;47.798;12.472;2022-12-18T06:14:03;21.33;;;8.40;;
72379;SDS011;60354;47.798;12.472;2022-12-18T06:16:30;17.20;;;7.32;;
72379;SDS011;60354;47.798;12.472;2022-12-18T06:18:56;20.48;;;7.88;;
72379;SDS011;60354;47.798;12.472;2022-12-18T06:21:22;24.65;;;11.10;;
72379;SDS011;60354;47.798;12.472;2022-12-18T06:23:48;21.20;;;9.68;;
72379;SDS011;60354;47.798;12.472;2022-12-18T06:26:14;19.23;;;8.90;;
72379;SDS011;60354;47.798;12.472;2022-12-18T06:28:40;23.73;;;9.88;;
72379;SDS011;60354;47.798;12.472;2022-12-18T06:31:09;26.50;;;11.32;;
72379;SDS011;60354;47.798;12.472;2022-12-18T06:33:35;28.63;;;10.88;;
72379;SDS011;60354;47.798;12.472;2022-12-18T06:36:11;24.58;;;10.25;;
72379;SDS011;60354;47.798;12.472;2022-12-18T06:38:38;24.13;;;8.68;;
72379;SDS011;60354;47.798;12.472;2022-12-18T06:41:08;26.42;;;10.82;;
72379;SDS011;60354;47.798;12.472;2022-12-18T06:43:34;28.50;;;11.05;;
72379;SDS011;60354;47.798;12.472;2022-12-18T06:45:59;28.10;;;10.55;;
72379;SDS011;60354;47.798;12.472;2022-12-18T06:48:25;24.60;;;10.13;;
72379;SDS011;60354;47.798;12.472;2022-12-18T06:50:51;23.17;;;10.88;;
72379;SDS011;60354;47.798;12.472;2022-12-18T06:53:16;25.45;;;10.38;;
72379;SDS011;60354;47.798;12.472;2022-12-18T06:55:42;23.88;;;9.15;;
72379;SDS011;60354;47.798;12.472;2022-12-18T06:58:07;23.48;;;9.35;;
72379;SDS011;60354;47.798;12.472;2022-12-18T07:00:33;26.40;;;9.43;;
72379;SDS011;60354;47.798;12.472;2022-12-18T07:02:58;23.65;;;9.07;;
72379;SDS011;60354;47.798;12.472;2022-12-18T07:05:24;23.92;;;8.90;;
72379;SDS011;60354;47.798;12.472;2022-12-18T07:07:49;21.48;;;9.45;;
72379;SDS011;60354;47.798;12.472;2022-12-18T07:10:15;20.13;;;8.77;;
72379;SDS011;60354;47.798;12.472;2022-12-18T07:12:40;23.42;;;9.65;;
72379;SDS011;60354;47.798;12.472;2022-12-18T07:15:06;25.50;;;10.70;;
72379;SDS011;60354;47.798;12.472;2022-12-18T07:17:32;32.95;;;11.68;;
72379;SDS011;60354;47.798;12.472;2022-12-18T07:19:57;27.65;;;12.13;;
72379;SDS011;60354;47.798;12.472;2022-12-18T07:22:24;28.20;;;11.07;;
72379;SDS011;60354;47.798;12.472;2022-12-18T07:24:50;26.00;;;11.52;;
72379;SDS011;60354;47.798;12.472;2022-12-18T07:27:16;26.98;;;11.10;;
72379;SDS011;60354;47.798;12.472;2022-12-18T07:29:42;33.60;;;11.60;;
72379;SDS011;60354;47.798;12.472;2022-12-18T07:32:07;25.38;;;11.73;;
72379;SDS011;60354;47.798;12.472;2022-12-18T07:34:33;26.98;;;10.95;;
72379;SDS011;60354;47.798;12.472;2022-12-18T07:36:59;26.20;;;11.00;;
72379;SDS011;60354;47.798;12.472;2022-12-18T07:39:25;24.90;;;11.68;;
72379;SDS011;60354;47.798;12.472;2022-12-18T07:41:50;30.85;;;12.98;;
72379;SDS011;60354;47.798;12.472;2022-12-18T07:44:35;40.00;;;15.85;;
72379;SDS011;60354;47.798;12.472;2022-12-18T07:47:00;40.20;;;16.83;;
72379;SDS011;60354;47.798;12.472;2022-12-18T07:49:26;39.22;;;15.48;;
72379;SDS011;60354;47.798;12.472;2022-12-18T07:51:53;26.80;;;10.63;;
72379;SDS011;60354;47.798;12.472;2022-12-18T07:54:21;23.95;;;9.95;;
72379;SDS011;60354;47.798;12.472;2022-12-18T07:56:47;27.08;;;10.60;;
72379;SDS011;60354;47.798;12.472;2022-12-18T07:59:12;25.35;;;10.15;;
72379;SDS011;60354;47.798;12.472;2022-12-18T08:01:38;25.90;;;10.70;;
72379;SDS011;60354;47.798;12.472;2022-12-18T08:04:03;25.73;;;10.20;;
72379;SDS011;60354;47.798;12.472;2022-12-18T08:06:29;19.90;;;8.93;;
72379;SDS011;60354;47.798;12.472;2022-12-18T08:08:55;25.10;;;9.73;;
72379;SDS011;60354;47.798;12.472;2022-12-18T08:11:21;25.85;;;11.48;;
72379;SDS011;60354;47.798;12.472;2022-12-18T08:13:48;26.40;;;11.73;;
72379;SDS011;60354;47.798;12.472;2022-12-18T08:16:13;27.10;;;11.65;;
72379;SDS011;60354;47.798;12.472;2022-12-18T08:18:39;30.83;;;12.27;;
72379;SDS011;60354;47.798;12.472;2022-12-18T08:21:11;26.63;;;11.68;;
72379;SDS011;60354;47.798;12.472;2022-12-18T08:23:38;40.50;;;17.48;;
72379;SDS011;60354;47.798;12.472;2022-12-18T08:26:04;38.97;;;15.32;;
72379;SDS011;60354;47.798;12.472;2022-12-18T08:28:30;32.03;;;13.30;;
72379;SDS011;60354;47.798;12.472;2022-12-18T08:30:56;36.85;;;16.13;;
72379;SDS011;60354;47.798;12.472;2022-12-18T08:33:22;36.83;;;15.30;;
72379;SDS011;60354;47.798;12.472;2022-12-18T08:35:47;46.75;;;20.05;;
72379;SDS011;60354;47.798;12.472;2022-12-18T08:38:12;55.17;;;20.55;;
72379;SDS011;60354;47.798;12.472;2022-12-18T08:40:38;43.55;;;17.10;;
72379;SDS011;60354;47.798;12.472;2022-12-18T08:43:03;32.30;;;13.90;;
72379;SDS011;60354;47.798;12.472;2022-12-18T08:45:49;24.25;;;11.20;;
72379;SDS011;60354;47.798;12.472;2022-12-18T08:48:15;28.67;;;12.10;;
72379;SDS011;60354;47.798;12.472;2022-12-18T08:50:40;30.15;;;13.45;;
72379;SDS011;60354;47.798;12.472;2022-12-18T08:53:06;33.30;;;15.68;;
72379;SDS011;60354;47.798;12.472;2022-12-18T08:55:31;43.20;;;16.73;;
72379;SDS011;60354;47.798;12.472;2022-12-18T08:57:57;47.42;;;20.60;;
72379;SDS011;60354;47.798;12.472;2022-12-18T09:00:22;48.90;;;21.55;;
72379;SDS011;60354;47.798;12.472;2022-12-18T09:02:48;31.60;;;15.90;;
72379;SDS011;60354;47.798;12.472;2022-12-18T09:05:13;43.47;;;21.50;;
72379;SDS011;60354;47.798;12.472;2022-12-18T09:07:39;33.70;;;15.98;;
72379;SDS011;60354;47.798;12.472;2022-12-18T09:10:04;40.72;;;16.90;;
72379;SDS011;60354;47.798;12.472;2022-12-18T09:12:30;39.03;;;16.67;;
72379;SDS011;60354;47.798;12.472;2022-12-18T09:14:56;52.60;;;18.40;;
72379;SDS011;60354;47.798;12.472;2022-12-18T09:17:22;40.58;;;14.80;;
72379;SDS011;60354;47.798;12.472;2022-12-18T09:19:47;36.38;;;14.85;;
72379;SDS011;60354;47.798;12.472;2022-12-18T09:22:13;35.22;;;15.18;;
72379;SDS011;60354;47.798;12.472;2022-12-18T09:24:38;40.35;;;17.42;;
72379;SDS011;60354;47.798;12.472;2022-12-18T09:27:04;44.28;;;19.45;;
72379;SDS011;60354;47.798;12.472;2022-12-18T09:29:29;41.58;;;18.17;;
72379;SDS011;60354;47.798;12.472;2022-12-18T09:31:55;42.35;;;17.00;;
72379;SDS011;60354;47.798;12.472;2022-12-18T09:34:21;32.00;;;14.82;;
72379;SDS011;60354;47.798;12.472;2022-12-18T09:36:47;31.13;;;14.88;;
72379;SDS011;60354;47.798;12.472;2022-12-18T09:39:12;32.75;;;14.63;;
72379;SDS011;60354;47.798;12.472;2022-12-18T09:46:44;32.00;;;14.38;;
72379;SDS011;60354;47.798;12.472;2022-12-18T09:49:17;32.28;;;14.10;;
72379;SDS011;60354;47.798;12.472;2022-12-18T09:51:49;36.65;;;15.40;;
72379;SDS011;60354;47.798;12.472;2022-12-18T09:54:37;29.35;;;13.07;;
72379;SDS011;60354;47.798;12.472;2022-12-18T09:57:11;25.77;;;12.05;;
72379;SDS011;60354;47.798;12.472;2022-12-18T09:59:39;30.15;;;12.95;;
72379;SDS011;60354;47.798;12.472;2022-12-18T10:02:17;28.80;;;11.43;;
72379;SDS011;60354;47.798;12.472;2022-12-18T10:04:48;46.17;;;16.92;;
72379;SDS011;60354;47.798;12.472;2022-12-18T10:07:43;37.00;;;14.70;;
72379;SDS011;60354;47.798;12.472;2022-12-18T10:10:51;42.80;;;19.98;;
72379;SDS011;60354;47.798;12.472;2022-12-18T10:21:34;51.47;;;25.85;;
72379;SDS011;60354;47.798;12.472;2022-12-18T10:26:38;35.88;;;14.52;;
72379;SDS011;60354;47.798;12.472;2022-12-18T10:29:11;26.60;;;11.10;;
72379;SDS011;60354;47.798;12.472;2022-12-18T10:31:39;24.65;;;10.20;;
72379;SDS011;60354;47.798;12.472;2022-12-18T10:34:08;27.95;;;11.45;;
72379;SDS011;60354;47.798;12.472;2022-12-18T10:36:35;27.60;;;12.45;;
72379;SDS011;60354;47.798;12.472;2022-12-18T10:41:47;25.85;;;11.05;;
72379;SDS011;60354;47.798;12.472;2022-12-18T10:44:17;23.50;;;10.25;;
72379;SDS011;60354;47.798;12.472;2022-12-18T10:46:51;25.30;;;10.23;;
72379;SDS011;60354;47.798;12.472;2022-12-18T10:49:22;20.63;;;8.77;;
72379;SDS011;60354;47.798;12.472;2022-12-18T10:51:50;16.20;;;7.53;;
72379;SDS011;60354;47.798;12.472;2022-12-18T10:56:52;18.02;;;8.68;;
72379;SDS011;60354;47.798;12.472;2022-12-18T10:59:57;28.00;;;12.38;;
72379;SDS011;60354;47.798;12.472;2022-12-18T11:02:33;24.20;;;11.15;;
72379;SDS011;60354;47.798;12.472;2022-12-18T11:05:01;20.80;;;9.65;;
72379;SDS011;60354;47.798;12.472;2022-12-18T11:07:46;23.10;;;8.63;;
72379;SDS011;60354;47.798;12.472;2022-12-18T11:10:17;17.25;;;7.70;;
72379;SDS011;60354;47.798;12.472;2022-12-18T11:12:44;20.70;;;8.90;;
72379;SDS011;60354;47.798;12.472;2022-12-18T11:15:15;16.17;;;6.88;;
72379;SDS011;60354;47.798;12.472;2022-12-18T11:18:01;19.58;;;8.75;;
72379;SDS011;60354;47.798;12.472;2022-12-18T11:22:55;19.30;;;8.57;;
72379;SDS011;60354;47.798;12.472;2022-12-18T11:25:23;23.00;;;9.50;;
72379;SDS011;60354;47.798;12.472;2022-12-18T11:27:51;23.88;;;11.07;;
72379;SDS011;60354;47.798;12.472;2022-12-18T11:33:00;23.48;;;9.85;;
72379;SDS011;60354;47.798;12.472;2022-12-18T11:35:52;23.08;;;10.80;;
72379;SDS011;60354;47.798;12.472;2022-12-18T11:38:22;31.58;;;13.43;;
72379;SDS011;60354;47.798;12.472;2022-12-18T11:41:11;31.13;;;13.40;;
72379;SDS011;60354;47.798;12.472;2022-12-18T11:43:48;24.17;;;11.00;;
72379;SDS011;60354;47.798;12.472;2022-12-18T11:46:37;22.92;;;10.77;;
72379;SDS011;60354;47.798;12.472;2022-12-18T11:49:20;27.77;;;11.45;;
72379;SDS011;60354;47.798;12.472;2022-12-18T11:54:34;28.85;;;12.40;;
72379;SDS011;60354;47.798;12.472;2022-12-18T12:00:04;27.58;;;12.20;;
72379;SDS011;60354;47.798;12.472;2022-12-18T12:14:09;26.00;;;11.95;;
72379;SDS011;60354;47.798;12.472;2022-12-18T12:27:20;24.42;;;10.55;;
72379;SDS011;60354;47.798;12.472;2022-12-18T12:35:22;23.67;;;11.52;;
72379;SDS011;60354;47.798;12.472;2022-12-18T12:38:22;26.10;;;11.57;;
72379;SDS011;60354;47.798;12.472;2022-12-18T12:40:56;28.75;;;11.30;;
72379;SDS011;60354;47.798;12.472;2022-12-18T12:46:09;30.65;;;12.27;;
72379;SDS011;60354;47.798;12.472;2022-12-18T12:51:15;32.05;;;15.57;;
72379;SDS011;60354;47.798;12.472;2022-12-18T12:53:43;27.77;;;12.70;;
72379;SDS011;60354;47.798;12.472;2022-12-18T12:56:11;30.05;;;14.00;;
72379;SDS011;60354;47.798;12.472;2022-12-18T12:58:45;24.70;;;11.23;;
72379;SDS011;60354;47.798;12.472;2022-12-18T13:06:54;28.52;;;13.77;;
72379;SDS011;60354;47.798;12.472;2022-12-18T13:09:23;33.33;;;14.35;;
72379;SDS011;60354;47.798;12.472;2022-12-18T13:11:48;35.15;;;14.77;;
72379;SDS011;60354;47.798;12.472;2022-12-18T13:14:34;33.13;;;12.65;;
72379;SDS011;60354;47.798;12.472;2022-12-18T13:22:36;36.35;;;14.38;;
72379;SDS011;60354;47.798;12.472;2022-12-18T13:25:26;28.75;;;12.55;;
72379;SDS011;60354;47.798;12.472;2022-12-18T13:28:07;26.63;;;11.55;;
72379;SDS011;60354;47.798;12.472;2022-12-18T13:33:43;25.80;;;12.23;;
72379;SDS011;60354;47.798;12.472;2022-12-18T13:38:34;32.08;;;13.18;;
72379;SDS011;60354;47.798;12.472;2022-12-18T13:41:21;35.45;;;15.88;;
72379;SDS011;60354;47.798;12.472;2022-12-18T13:43:51;28.83;;;12.77;;
72379;SDS011;60354;47.798;12.472;2022-12-18T13:51:49;29.88;;;11.82;;
72379;SDS011;60354;47.798;12.472;2022-12-18T13:57:10;29.52;;;13.45;;
72379;SDS011;60354;47.798;12.472;2022-12-18T13:59:50;27.90;;;14.00;;
72379;SDS011;60354;47.798;12.472;2022-12-18T14:02:16;27.92;;;13.10;;
72379;SDS011;60354;47.798;12.472;2022-12-18T14:04:45;30.13;;;13.18;;
72379;SDS011;60354;47.798;12.472;2022-12-18T14:07:13;29.60;;;14.20;;
72379;SDS011;60354;47.798;12.472;2022-12-18T14:09:42;39.47;;;17.55;;
72379;SDS011;60354;47.798;12.472;2022-12-18T14:12:19;26.20;;;13.15;;
72379;SDS011;60354;47.798;12.472;2022-12-18T14:15:12;26.60;;;12.32;;
72379;SDS011;60354;47.798;12.472;2022-12-18T14:17:59;31.45;;;14.38;;
72379;SDS011;60354;47.798;12.472;2022-12-18T14:20:28;27.60;;;12.60;;
72379;SDS011;60354;47.798;12.472;2022-12-18T14:22:56;24.85;;;12.25;;
72379;SDS011;60354;47.798;12.472;2022-12-18T14:25:26;25.70;;;12.20;;
72379;SDS011;60354;47.798;12.472;2022-12-18T14:30:39;23.80;;;11.55;;
72379;SDS011;60354;47.798;12.472;2022-12-18T14:33:10;27.02;;;12.63;;
72379;SDS011;60354;47.798;12.472;2022-12-18T14:35:37;30.40;;;13.15;;
72379;SDS011;60354;47.798;12.472;2022-12-18T14:41:32;33.22;;;13.70;;
72379;SDS011;60354;47.798;12.472;2022-12-18T14:43:40;24.33;;;10.30;;
72379;SDS011;60354;47.798;12.472;2022-12-18T14:52:00;22.15;;;10.07;;
72379;SDS011;60354;47.798;12.472;2022-12-18T14:54:28;23.65;;;10.10;;
72379;SDS011;60354;47.798;12.472;2022-12-18T14:59:26;21.13;;;9.88;;
72379;SDS011;60354;47.798;12.472;2022-12-18T15:02:15;20.98;;;10.00;;
72379;SDS011;60354;47.798;12.472;2022-12-18T15:04:43;23.75;;;9.80;;
72379;SDS011;60354;47.798;12.472;2022-12-18T15:09:35;20.08;;;9.77;;
72379;SDS011;60354;47.798;12.472;2022-12-18T15:12:00;21.90;;;9.75;;
72379;SDS011;60354;47.798;12.472;2022-12-18T15:16:55;23.00;;;9.68;;
72379;SDS011;60354;47.798;12.472;2022-12-18T15:19:22;20.35;;;9.82;;
72379;SDS011;60354;47.798;12.472;2022-12-18T15:22:26;20.23;;;9.30;;
72379;SDS011;60354;47.798;12.472;2022-12-18T15:24:55;22.52;;;10.00;;
72379;SDS011;60354;47.798;12.472;2022-12-18T15:27:22;20.23;;;9.32;;
72379;SDS011;60354;47.798;12.472;2022-12-18T15:32:26;19.58;;;9.10;;
72379;SDS011;60354;47.798;12.472;2022-12-18T15:35:02;20.50;;;9.50;;
72379;SDS011;60354;47.798;12.472;2022-12-18T15:37:38;19.20;;;9.20;;
72379;SDS011;60354;47.798;12.472;2022-12-18T15:40:04;20.77;;;9.20;;
72379;SDS011;60354;47.798;12.472;2022-12-18T15:42:31;21.98;;;9.35;;
72379;SDS011;60354;47.798;12.472;2022-12-18T15:45:14;17.92;;;8.68;;
72379;SDS011;60354;47.798;12.472;2022-12-18T15:47:40;18.88;;;9.02;;
72379;SDS011;60354;47.798;12.472;2022-12-18T15:50:09;18.73;;;8.75;;
72379;SDS011;60354;47.798;12.472;2022-12-18T15:52:45;20.83;;;8.88;;
72379;SDS011;60354;47.798;12.472;2022-12-18T15:55:22;20.05;;;8.45;;
72379;SDS011;60354;47.798;12.472;2022-12-18T15:58:08;20.23;;;9.30;;
72379;SDS011;60354;47.798;12.472;2022-12-18T16:00:35;15.07;;;7.38;;
72379;SDS011;60354;47.798;12.472;2022-12-18T16:03:03;16.98;;;7.57;;
72379;SDS011;60354;47.798;12.472;2022-12-18T16:05:29;20.13;;;8.05;;
72379;SDS011;60354;47.798;12.472;2022-12-18T16:07:55;17.52;;;7.97;;
72379;SDS011;60354;47.798;12.472;2022-12-18T16:10:21;16.85;;;7.53;;
72379;SDS011;60354;47.798;12.472;2022-12-18T16:12:48;17.75;;;7.78;;
72379;SDS011;60354;47.798;12.472;2022-12-18T16:15:14;18.80;;;7.97;;
72379;SDS011;60354;47.798;12.472;2022-12-18T16:17:41;17.17;;;7.63;;
72379;SDS011;60354;47.798;12.472;2022-12-18T16:20:18;16.65;;;8.38;;
72379;SDS011;60354;47.798;12.472;2022-12-18T16:22:45;17.40;;;8.25;;
72379;SDS011;60354;47.798;12.472;2022-12-18T16:25:25;23.73;;;8.88;;
72379;SDS011;60354;47.798;12.472;2022-12-18T16:27:53;18.08;;;8.77;;
72379;SDS011;60354;47.798;12.472;2022-12-18T16:30:24;18.73;;;8.73;;
72379;SDS011;60354;47.798;12.472;2022-12-18T16:32:53;20.65;;;8.68;;
72379;SDS011;60354;47.798;12.472;2022-12-18T16:35:19;18.83;;;9.20;;
72379;SDS011;60354;47.798;12.472;2022-12-18T16:37:45;23.35;;;11.00;;
72379;SDS011;60354;47.798;12.472;2022-12-18T16:40:12;32.05;;;11.27;;
72379;SDS011;60354;47.798;12.472;2022-12-18T16:42:40;27.63;;;11.05;;
72379;SDS011;60354;47.798;12.472;2022-12-18T16:45:08;31.60;;;14.45;;